createdAt,value
2019-05-14T00:01:03.450Z,12.30
2019-05-14T00:03:33.406Z,12.30
2019-05-14T00:06:02.811Z,12.20
2019-05-14T00:08:32.178Z,12.20
2019-05-14T00:11:01.680Z,12.20
2019-05-14T00:13:32.078Z,12.10
2019-05-14T00:16:01.934Z,12.00
2019-05-14T00:18:31.763Z,12.00
2019-05-14T00:21:02.010Z,12.00
2019-05-14T00:23:32.074Z,11.90
2019-05-14T00:26:02.138Z,11.90
2019-05-14T00:28:31.901Z,11.80
2019-05-14T00:31:02.983Z,11.80
2019-05-14T00:33:32.500Z,11.80
2019-05-14T00:36:02.294Z,11.70
2019-05-14T00:38:31.829Z,11.70
2019-05-14T00:41:02.021Z,11.70
2019-05-14T00:43:32.340Z,11.60
2019-05-14T00:46:02.442Z,11.60
2019-05-14T00:48:32.175Z,11.60
2019-05-14T00:51:02.489Z,11.50
2019-05-14T00:53:32.371Z,11.50
2019-05-14T00:56:02.444Z,11.50
2019-05-14T00:58:32.316Z,11.50
2019-05-14T01:01:01.922Z,11.50
2019-05-14T01:03:32.527Z,11.40
2019-05-14T01:06:07.794Z,11.40
2019-05-14T01:08:37.182Z,11.40
2019-05-14T01:11:06.938Z,11.30
2019-05-14T01:13:36.321Z,11.30
2019-05-14T01:16:05.691Z,11.20
2019-05-14T01:18:35.080Z,11.20
2019-05-14T01:21:04.446Z,11.10
2019-05-14T01:23:33.815Z,11.10
2019-05-14T01:26:03.207Z,11.10
2019-05-14T01:28:32.926Z,11.00
2019-05-14T01:31:02.295Z,11.00
2019-05-14T01:33:32.080Z,11.00
2019-05-14T01:36:02.035Z,11.00
2019-05-14T01:38:31.902Z,10.90
2019-05-14T01:41:02.045Z,10.90
2019-05-14T01:43:31.867Z,10.90
2019-05-14T01:46:01.958Z,10.90
2019-05-14T01:48:31.623Z,10.80
2019-05-14T01:51:01.517Z,10.80
2019-05-14T01:53:31.439Z,10.80
2019-05-14T01:56:01.918Z,10.80
2019-05-14T01:58:31.489Z,10.70
2019-05-14T02:01:02.008Z,10.70
2019-05-14T02:03:32.252Z,10.70
2019-05-14T02:06:01.955Z,10.70
2019-05-14T02:08:32.267Z,10.70
2019-05-14T02:11:02.529Z,10.60
2019-05-14T02:13:32.399Z,10.60
2019-05-14T02:16:02.549Z,10.60
2019-05-14T02:18:32.229Z,10.60
2019-05-14T02:21:01.897Z,10.50
2019-05-14T02:23:31.983Z,10.50
2019-05-14T02:26:02.485Z,10.50
2019-05-14T02:28:32.415Z,10.40
2019-05-14T02:31:03.486Z,10.40
2019-05-14T02:33:32.994Z,10.40
2019-05-14T02:36:02.370Z,10.40
2019-05-14T02:38:31.735Z,10.40
2019-05-14T02:41:01.229Z,10.40
2019-05-14T02:43:30.600Z,10.30
2019-05-14T02:46:09.984Z,10.30
2019-05-14T02:48:31.121Z,10.30
2019-05-14T02:51:00.505Z,10.30
2019-05-14T02:53:30.199Z,10.20
2019-05-14T02:56:00.468Z,10.20
2019-05-14T02:58:30.282Z,10.20
2019-05-14T03:01:00.724Z,10.20
2019-05-14T03:03:30.425Z,10.10
2019-05-14T03:06:00.574Z,10.10
2019-05-14T03:08:30.888Z,10.10
2019-05-14T03:11:00.802Z,10.00
2019-05-14T03:13:30.640Z,10.00
2019-05-14T03:16:18.698Z,10.00
2019-05-14T03:18:31.386Z,10.00
2019-05-14T03:21:01.220Z,9.90
2019-05-14T03:23:30.874Z,9.90
2019-05-14T03:26:00.993Z,9.80
2019-05-14T03:28:30.844Z,9.80
2019-05-14T03:31:02.716Z,9.80
2019-05-14T03:33:33.093Z,9.70
2019-05-14T03:36:09.594Z,9.70
2019-05-14T03:38:33.977Z,9.60
2019-05-14T03:41:03.692Z,9.60
2019-05-14T03:43:33.502Z,9.60
2019-05-14T03:46:02.943Z,9.60
2019-05-14T03:48:32.336Z,9.50
2019-05-14T03:51:01.695Z,9.50
2019-05-14T03:53:31.382Z,9.50
2019-05-14T03:56:01.529Z,9.50
2019-05-14T03:58:31.150Z,9.50
2019-05-14T04:01:03.725Z,9.50
2019-05-14T04:03:33.857Z,9.50
2019-05-14T04:06:03.878Z,9.50
2019-05-14T04:08:38.906Z,9.50
2019-05-14T04:11:09.519Z,9.40
2019-05-14T04:13:41.294Z,9.50
2019-05-14T04:16:14.799Z,9.50
2019-05-14T04:18:50.397Z,9.50
2019-05-14T04:21:21.728Z,9.50
2019-05-14T04:23:51.506Z,9.50
2019-05-14T04:26:23.442Z,9.50
2019-05-14T04:28:53.871Z,9.60
2019-05-14T04:31:23.309Z,9.60
2019-05-14T04:33:59.288Z,9.60
2019-05-14T04:36:29.975Z,9.60
2019-05-14T04:39:00.552Z,9.70
2019-05-14T04:41:30.287Z,9.70
2019-05-14T04:43:59.748Z,9.70
2019-05-14T04:46:30.233Z,9.80
2019-05-14T04:48:59.936Z,9.80
2019-05-14T04:51:30.470Z,9.80
2019-05-14T04:54:00.192Z,9.90
2019-05-14T04:56:30.380Z,9.90
2019-05-14T04:58:59.885Z,10.00
2019-05-14T05:01:29.695Z,10.00
2019-05-14T05:03:59.442Z,10.10
2019-05-14T05:06:30.441Z,10.10
2019-05-14T05:09:00.294Z,10.20
2019-05-14T05:11:29.776Z,10.30
2019-05-14T05:13:59.500Z,10.40
2019-05-14T05:16:29.705Z,10.50
2019-05-14T05:18:59.606Z,10.70
2019-05-14T05:21:29.117Z,10.80
2019-05-14T05:23:58.617Z,11.00
2019-05-14T05:26:28.625Z,11.30
2019-05-14T05:29:05.874Z,11.50
2019-05-14T05:31:29.742Z,11.70
2019-05-14T05:33:59.105Z,11.90
2019-05-14T05:36:29.117Z,12.20
2019-05-14T05:38:59.306Z,12.30
2019-05-14T05:41:28.837Z,12.40
2019-05-14T05:43:58.908Z,12.50
2019-05-14T05:46:28.729Z,12.60
2019-05-14T05:48:58.695Z,12.70
2019-05-14T05:51:29.080Z,12.80
2019-05-14T05:53:58.881Z,12.80
2019-05-14T05:56:28.874Z,12.90
2019-05-14T05:59:00.639Z,13.00
2019-05-14T06:01:41.650Z,13.00
2019-05-14T06:04:01.332Z,13.00
2019-05-14T06:06:30.943Z,13.00
2019-05-14T06:09:00.750Z,13.00
2019-05-14T06:11:30.122Z,13.00
2019-05-14T06:13:59.546Z,13.00
2019-05-14T06:16:29.104Z,13.00
2019-05-14T06:18:58.904Z,13.00
2019-05-14T06:21:29.187Z,13.00
2019-05-14T06:24:02.721Z,13.00
2019-05-14T06:26:30.165Z,13.00
2019-05-14T06:28:59.976Z,13.00
2019-05-14T06:31:29.582Z,13.00
2019-05-14T06:33:59.304Z,13.00
2019-05-14T06:36:29.213Z,13.10
2019-05-14T06:38:58.880Z,13.00
2019-05-14T06:41:28.531Z,13.00
2019-05-14T06:43:59.092Z,13.00
2019-05-14T06:46:28.661Z,13.00
2019-05-14T06:48:59.080Z,13.00
2019-05-14T06:51:29.773Z,13.00
2019-05-14T06:53:59.144Z,13.10
2019-05-14T06:56:28.528Z,13.10
2019-05-14T06:58:58.595Z,13.20
2019-05-14T07:01:29.205Z,13.30
2019-05-14T07:03:58.722Z,13.40
2019-05-14T07:06:29.098Z,13.50
2019-05-14T07:08:58.980Z,13.60
2019-05-14T07:11:29.193Z,13.70
2019-05-14T07:13:59.041Z,13.80
2019-05-14T07:16:28.800Z,13.90
2019-05-14T07:18:59.263Z,14.00
2019-05-14T07:21:29.282Z,14.00
2019-05-14T07:23:59.439Z,14.10
2019-05-14T07:26:29.577Z,14.10
2019-05-14T07:28:59.279Z,14.10
2019-05-14T07:31:29.230Z,14.20
2019-05-14T07:33:58.952Z,14.30
2019-05-14T07:36:29.327Z,14.40
2019-05-14T07:39:00.129Z,14.40
2019-05-14T07:41:29.864Z,14.50
2019-05-14T07:44:00.010Z,14.60
2019-05-14T07:46:29.373Z,14.70
2019-05-14T07:49:07.360Z,14.70
2019-05-14T07:51:31.265Z,14.80
2019-05-14T07:54:00.645Z,14.80
2019-05-14T07:56:30.028Z,14.90
2019-05-14T07:59:02.082Z,14.90
2019-05-14T08:01:30.503Z,15.00
2019-05-14T08:04:00.247Z,15.00
2019-05-14T08:06:29.968Z,15.10
2019-05-14T08:08:59.405Z,15.10
2019-05-14T08:11:28.780Z,15.20
2019-05-14T08:13:58.854Z,15.20
2019-05-14T08:16:28.775Z,15.30
2019-05-14T08:19:00.161Z,15.30
2019-05-14T08:21:29.780Z,15.40
2019-05-14T08:23:59.399Z,15.40
2019-05-14T08:26:29.479Z,15.50
2019-05-14T08:28:59.570Z,15.60
2019-05-14T08:31:29.387Z,15.70
2019-05-14T08:33:59.268Z,15.80
2019-05-14T08:36:28.802Z,15.80
2019-05-14T08:38:58.238Z,15.90
2019-05-14T08:41:28.884Z,16.00
2019-05-14T08:43:59.497Z,16.10
2019-05-14T08:46:29.183Z,16.20
2019-05-14T08:48:58.805Z,16.20
2019-05-14T08:51:29.829Z,16.20
2019-05-14T08:53:59.430Z,16.20
2019-05-14T08:56:28.828Z,16.20
2019-05-14T08:58:59.055Z,16.20
2019-05-14T09:01:29.301Z,16.20
2019-05-14T09:03:59.491Z,16.20
2019-05-14T09:06:29.197Z,16.20
2019-05-14T09:08:59.571Z,16.20
2019-05-14T09:11:35.994Z,16.20
2019-05-14T09:14:00.603Z,16.20
2019-05-14T09:16:41.794Z,16.20
2019-05-14T09:19:01.290Z,16.20
2019-05-14T09:21:32.011Z,16.20
2019-05-14T09:24:01.419Z,16.20
2019-05-14T09:26:30.760Z,16.30
2019-05-14T09:29:00.163Z,16.30
2019-05-14T09:31:29.682Z,16.40
2019-05-14T09:33:59.080Z,16.50
2019-05-14T09:36:29.157Z,16.50
2019-05-14T09:38:58.686Z,16.60
2019-05-14T09:41:30.798Z,16.60
2019-05-14T09:43:59.145Z,16.60
2019-05-14T09:46:28.965Z,16.70
2019-05-14T09:48:58.960Z,16.70
2019-05-14T09:51:28.870Z,16.70
2019-05-14T09:53:59.016Z,16.80
2019-05-14T09:56:29.208Z,16.90
2019-05-14T09:58:59.127Z,17.00
2019-05-14T10:01:28.503Z,17.10
2019-05-14T10:03:59.188Z,17.10
2019-05-14T10:06:28.938Z,17.10
2019-05-14T10:08:59.013Z,17.10
2019-05-14T10:11:28.917Z,17.00
2019-05-14T10:13:59.787Z,17.10
2019-05-14T10:16:29.394Z,17.00
2019-05-14T10:18:58.995Z,17.00
2019-05-14T10:21:29.329Z,17.10
2019-05-14T10:23:58.924Z,17.10
2019-05-14T10:26:28.940Z,17.10
2019-05-14T10:28:59.171Z,17.10
2019-05-14T10:31:29.066Z,17.20
2019-05-14T10:33:58.943Z,17.10
2019-05-14T10:36:29.987Z,17.10
2019-05-14T10:38:59.718Z,17.00
2019-05-14T10:41:29.366Z,17.00
2019-05-14T10:43:59.264Z,16.90
2019-05-14T10:46:29.370Z,16.90
2019-05-14T10:49:14.647Z,16.90
2019-05-14T10:51:30.172Z,16.90
2019-05-14T10:53:59.754Z,16.90
2019-05-14T10:56:29.916Z,16.90
2019-05-14T10:59:01.555Z,16.90
2019-05-14T11:01:30.921Z,17.00
2019-05-14T11:04:00.298Z,17.00
2019-05-14T11:06:29.680Z,17.10
2019-05-14T11:08:59.054Z,17.10
2019-05-14T11:11:29.045Z,17.20
2019-05-14T11:13:58.827Z,17.20
2019-05-14T11:16:28.459Z,17.20
2019-05-14T11:18:58.049Z,17.10
2019-05-14T11:21:30.096Z,17.10
2019-05-14T11:23:59.150Z,17.10
2019-05-14T11:26:29.550Z,17.00
2019-05-14T11:28:59.227Z,17.00
2019-05-14T11:31:29.872Z,17.00
2019-05-14T11:33:59.691Z,17.00
2019-05-14T11:36:29.664Z,17.10
2019-05-14T11:39:03.574Z,17.10
2019-05-14T11:41:30.121Z,17.10
2019-05-14T11:43:59.554Z,17.10
2019-05-14T11:46:42.081Z,17.10
2019-05-14T11:49:00.071Z,17.10
2019-05-14T11:51:56.127Z,17.10
2019-05-14T11:54:00.995Z,17.10
2019-05-14T11:56:30.369Z,17.10
2019-05-14T11:59:00.142Z,17.10
2019-05-14T12:01:29.927Z,17.10
2019-05-14T12:03:59.839Z,17.10
2019-05-14T12:06:30.442Z,17.20
2019-05-14T12:09:00.016Z,17.20
2019-05-14T12:11:29.382Z,17.20
2019-05-14T12:13:59.839Z,17.20
2019-05-14T12:16:29.729Z,17.10
2019-05-14T12:18:59.231Z,17.10
2019-05-14T12:21:29.077Z,17.10
2019-05-14T12:24:04.331Z,17.00
2019-05-14T12:26:29.643Z,16.90
2019-05-14T12:28:59.528Z,16.90
2019-05-14T12:31:29.194Z,16.80
2019-05-14T12:33:58.573Z,16.80
2019-05-14T12:36:29.309Z,16.80
2019-05-14T12:38:59.222Z,16.60
2019-05-14T12:41:29.476Z,16.90
2019-05-14T12:43:59.532Z,16.90
2019-05-14T12:46:29.490Z,16.90
2019-05-14T12:48:59.205Z,16.90
2019-05-14T12:51:28.730Z,17.00
2019-05-14T12:53:58.427Z,17.00
2019-05-14T12:56:29.336Z,17.00
2019-05-14T12:58:58.923Z,17.10
2019-05-14T13:01:28.317Z,17.10
2019-05-14T13:03:59.237Z,17.10
2019-05-14T13:06:29.587Z,17.10
2019-05-14T13:08:59.248Z,17.20
2019-05-14T13:11:28.607Z,17.20
2019-05-14T13:13:58.842Z,17.20
2019-05-14T13:16:28.677Z,17.20
2019-05-14T13:18:59.777Z,17.20
2019-05-14T13:21:30.833Z,17.20
2019-05-14T13:24:00.234Z,17.10
2019-05-14T13:26:29.958Z,17.10
2019-05-14T13:28:59.321Z,17.10
2019-05-14T13:31:29.407Z,17.10
2019-05-14T13:33:59.438Z,17.10
2019-05-14T13:36:29.305Z,17.20
2019-05-14T13:38:59.454Z,17.30
2019-05-14T13:41:29.096Z,17.30
2019-05-14T13:44:15.973Z,17.30
2019-05-14T13:46:30.426Z,17.30
2019-05-14T13:48:59.785Z,17.20
2019-05-14T13:51:33.386Z,17.20
2019-05-14T13:54:00.349Z,17.10
2019-05-14T13:56:29.734Z,17.20
2019-05-14T13:58:59.340Z,17.10
2019-05-14T14:01:29.760Z,17.10
2019-05-14T14:04:10.311Z,17.10
2019-05-14T14:06:30.741Z,17.20
2019-05-14T14:09:00.392Z,17.20
2019-05-14T14:11:31.448Z,17.30
2019-05-14T14:14:00.921Z,17.30
2019-05-14T14:16:30.305Z,17.20
2019-05-14T14:19:03.623Z,17.20
2019-05-14T14:21:31.162Z,17.10
2019-05-14T14:24:00.524Z,17.10
2019-05-14T14:26:29.897Z,17.10
2019-05-14T14:29:00.104Z,17.10
2019-05-14T14:31:29.810Z,17.10
2019-05-14T14:33:59.180Z,17.20
2019-05-14T14:36:29.867Z,17.10
2019-05-14T14:38:59.906Z,17.20
2019-05-14T14:41:29.495Z,17.20
2019-05-14T14:43:59.238Z,17.20
2019-05-14T14:46:28.840Z,17.20
2019-05-14T14:49:02.367Z,17.20
2019-05-14T14:51:29.402Z,17.20
2019-05-14T14:54:07.318Z,17.20
2019-05-14T14:56:29.908Z,17.20
2019-05-14T14:58:59.289Z,17.20
2019-05-14T15:01:30.125Z,17.20
2019-05-14T15:04:00.108Z,17.20
2019-05-14T15:06:30.946Z,17.20
2019-05-14T15:09:00.419Z,17.20
2019-05-14T15:11:29.786Z,17.20
2019-05-14T15:13:59.181Z,17.10
2019-05-14T15:16:29.272Z,17.10
2019-05-14T15:18:58.802Z,17.00
2019-05-14T15:21:29.943Z,17.00
2019-05-14T15:24:09.466Z,17.00
2019-05-14T15:26:30.590Z,16.90
2019-05-14T15:29:00.075Z,16.80
2019-05-14T15:31:29.536Z,16.80
2019-05-14T15:33:59.443Z,16.70
2019-05-14T15:36:28.877Z,16.60
2019-05-14T15:38:59.075Z,16.50
2019-05-14T15:41:29.651Z,16.40
2019-05-14T15:43:59.247Z,16.30
2019-05-14T15:46:28.635Z,16.30
2019-05-14T15:48:59.474Z,16.20
2019-05-14T15:51:29.556Z,16.30
2019-05-14T15:54:15.594Z,16.30
2019-05-14T15:56:30.038Z,16.30
2019-05-14T15:59:01.474Z,16.30
2019-05-14T16:01:30.515Z,16.30
2019-05-14T16:03:59.892Z,16.30
2019-05-14T16:06:29.287Z,16.30
2019-05-14T16:08:59.101Z,16.20
2019-05-14T16:11:29.144Z,16.20
2019-05-14T16:13:58.808Z,16.20
2019-05-14T16:16:28.985Z,16.10
2019-05-14T16:18:58.412Z,16.20
2019-05-14T16:21:28.886Z,16.10
2019-05-14T16:23:58.940Z,16.10
2019-05-14T16:26:29.266Z,16.10
2019-05-14T16:28:59.419Z,16.10
2019-05-14T16:31:31.665Z,16.10
2019-05-14T16:34:01.494Z,16.10
2019-05-14T16:36:31.774Z,16.00
2019-05-14T16:39:01.144Z,16.00
2019-05-14T16:41:30.765Z,16.00
2019-05-14T16:44:00.163Z,15.90
2019-05-14T16:46:29.857Z,15.90
2019-05-14T16:48:59.225Z,15.80
2019-05-14T16:51:28.616Z,15.90
2019-05-14T16:53:59.039Z,15.80
2019-05-14T16:56:28.562Z,15.80
2019-05-14T16:58:58.437Z,15.80
2019-05-14T17:01:32.739Z,15.90
2019-05-14T17:03:59.650Z,15.80
2019-05-14T17:06:29.447Z,15.90
2019-05-14T17:08:59.502Z,16.00
2019-05-14T17:11:28.946Z,16.00
2019-05-14T17:13:58.330Z,16.10
2019-05-14T17:16:28.887Z,16.10
2019-05-14T17:18:59.239Z,16.20
2019-05-14T17:21:29.319Z,16.20
2019-05-14T17:23:58.691Z,16.20
2019-05-14T17:26:28.764Z,16.20
2019-05-14T17:28:59.667Z,16.30
2019-05-14T17:31:31.115Z,16.30
2019-05-14T17:34:00.273Z,16.30
2019-05-14T17:36:30.662Z,16.30
2019-05-14T17:39:00.040Z,16.30
2019-05-14T17:41:29.394Z,16.30
2019-05-14T17:43:58.809Z,16.30
2019-05-14T17:46:28.979Z,16.30
2019-05-14T17:48:59.186Z,16.20
2019-05-14T17:51:28.811Z,16.10
2019-05-14T17:53:58.723Z,16.00
2019-05-14T17:56:28.473Z,15.90
2019-05-14T17:58:58.653Z,15.80
2019-05-14T18:01:29.002Z,15.60
2019-05-14T18:03:58.637Z,15.60
2019-05-14T18:06:28.616Z,15.50
2019-05-14T18:08:58.504Z,15.40
2019-05-14T18:11:28.551Z,15.30
2019-05-14T18:13:58.998Z,15.20
2019-05-14T18:16:28.735Z,15.10
2019-05-14T18:18:58.446Z,15.00
2019-05-14T18:21:28.571Z,14.90
2019-05-14T18:23:58.597Z,14.80
2019-05-14T18:26:29.051Z,14.70
2019-05-14T18:28:58.853Z,14.70
2019-05-14T18:31:28.250Z,14.60
2019-05-14T18:33:58.769Z,14.60
2019-05-14T18:36:28.690Z,14.50
2019-05-14T18:38:58.768Z,14.50
2019-05-14T18:41:30.064Z,14.40
2019-05-14T18:43:59.488Z,14.30
2019-05-14T18:46:28.891Z,14.30
2019-05-14T18:48:59.245Z,14.20
2019-05-14T18:51:28.981Z,14.20
2019-05-14T18:53:58.586Z,14.10
2019-05-14T18:56:29.212Z,14.10
2019-05-14T18:58:58.986Z,14.00
2019-05-14T19:01:29.122Z,14.00
2019-05-14T19:03:59.094Z,13.90
2019-05-14T19:06:29.453Z,13.80
2019-05-14T19:09:00.458Z,13.80
2019-05-14T19:11:29.824Z,13.70
2019-05-14T19:13:59.525Z,13.70
2019-05-14T19:16:29.008Z,13.70
2019-05-14T19:18:58.566Z,13.60
2019-05-14T19:21:28.662Z,13.50
2019-05-14T19:24:59.604Z,13.50
2019-05-14T19:26:40.275Z,13.40
2019-05-14T19:29:08.884Z,13.40
2019-05-14T19:31:38.733Z,13.30
2019-05-14T19:34:08.590Z,13.30
2019-05-14T19:36:39.971Z,13.20
2019-05-14T19:39:09.613Z,13.20
2019-05-14T19:41:39.130Z,13.10
2019-05-14T19:44:08.850Z,13.10
2019-05-14T19:46:38.806Z,13.00
2019-05-14T19:49:08.397Z,13.00
2019-05-14T19:51:38.834Z,12.90
2019-05-14T19:54:08.327Z,12.90
2019-05-14T19:56:52.001Z,12.80
2019-05-14T19:59:09.121Z,12.80
2019-05-14T20:01:38.763Z,12.70
2019-05-14T20:04:09.587Z,12.70
2019-05-14T20:06:39.405Z,12.60
2019-05-14T20:09:09.710Z,12.60
2019-05-14T20:11:39.836Z,12.50
2019-05-14T20:14:09.416Z,12.50
2019-05-14T20:16:39.394Z,12.50
2019-05-14T20:19:08.936Z,12.40
2019-05-14T20:21:38.921Z,12.40
2019-05-14T20:24:08.569Z,12.30
2019-05-14T20:26:38.966Z,12.30
2019-05-14T20:29:09.241Z,12.20
2019-05-14T20:31:39.109Z,12.20
2019-05-14T20:34:08.584Z,12.20
2019-05-14T20:36:38.981Z,12.10
2019-05-14T20:39:08.896Z,12.10
2019-05-14T20:41:38.670Z,12.10
2019-05-14T20:44:08.231Z,12.00
2019-05-14T20:46:38.281Z,12.00
2019-05-14T20:49:08.762Z,11.90
2019-05-14T20:51:39.131Z,11.90
2019-05-14T20:54:08.975Z,11.80
2019-05-14T20:56:40.256Z,11.80
2019-05-14T20:59:09.729Z,11.80
2019-05-14T21:01:39.148Z,11.70
2019-05-14T21:04:09.063Z,11.70
2019-05-14T21:06:39.248Z,11.60
2019-05-14T21:09:08.748Z,11.60
2019-05-14T21:11:38.735Z,11.50
2019-05-14T21:14:08.932Z,11.50
2019-05-14T21:16:39.306Z,11.50
2019-05-14T21:19:08.961Z,11.40
2019-05-14T21:21:38.554Z,11.40
2019-05-14T21:24:08.845Z,11.40
2019-05-14T21:26:40.095Z,11.30
2019-05-14T21:29:10.280Z,11.30
2019-05-14T21:31:39.711Z,11.20
2019-05-14T21:34:09.066Z,11.20
2019-05-14T21:36:39.158Z,11.10
2019-05-14T21:39:08.606Z,11.10
2019-05-14T21:41:38.690Z,11.10
2019-05-14T21:44:08.660Z,11.00
2019-05-14T21:46:39.774Z,10.90
2019-05-14T21:49:11.094Z,10.90
2019-05-14T21:51:41.063Z,10.90
2019-05-14T21:54:10.423Z,10.80
2019-05-14T21:56:39.815Z,10.80
2019-05-14T21:59:09.660Z,10.80
2019-05-14T22:01:39.624Z,10.70
2019-05-14T22:04:11.605Z,10.70
2019-05-14T22:06:41.227Z,10.60
2019-05-14T22:09:11.141Z,10.60
2019-05-14T22:11:40.509Z,10.60
2019-05-14T22:14:10.368Z,10.50
2019-05-14T22:16:39.734Z,10.50
2019-05-14T22:19:09.634Z,10.50
2019-05-14T22:21:41.875Z,10.40
2019-05-14T22:24:10.163Z,10.40
2019-05-14T22:26:39.529Z,10.30
2019-05-14T22:29:08.941Z,10.30
2019-05-14T22:31:38.925Z,10.30
2019-05-14T22:34:08.991Z,10.20
2019-05-14T22:36:39.173Z,10.20
2019-05-14T22:39:08.544Z,10.10
2019-05-14T22:41:38.405Z,10.10
2019-05-14T22:44:09.612Z,10.00
2019-05-14T22:46:40.370Z,10.00
2019-05-14T22:49:10.246Z,9.90
2019-05-14T22:51:39.638Z,9.90
2019-05-14T22:54:09.005Z,9.80
2019-05-14T22:56:39.119Z,9.80
2019-05-14T22:59:08.827Z,9.80
2019-05-14T23:01:38.780Z,9.70
2019-05-14T23:04:09.177Z,9.70
2019-05-14T23:06:38.711Z,9.70
2019-05-14T23:09:09.085Z,9.60
2019-05-14T23:11:38.784Z,9.60
2019-05-14T23:14:08.481Z,9.60
2019-05-14T23:16:41.645Z,9.50
2019-05-14T23:19:08.993Z,9.50
2019-05-14T23:21:39.097Z,9.50
2019-05-14T23:24:09.317Z,9.50
2019-05-14T23:26:38.989Z,9.50
2019-05-14T23:29:08.386Z,9.40
2019-05-14T23:31:38.446Z,9.40
2019-05-14T23:34:08.110Z,9.40
2019-05-14T23:36:38.785Z,9.40
2019-05-14T23:39:09.098Z,9.40
2019-05-14T23:41:38.922Z,9.30
2019-05-14T23:44:08.629Z,9.30
2019-05-14T23:46:37.985Z,9.30
2019-05-14T23:49:08.938Z,9.30
2019-05-14T23:51:38.931Z,9.30
2019-05-14T23:54:08.957Z,9.30
2019-05-14T23:56:38.668Z,9.30
2019-05-14T23:59:09.350Z,9.20
